Sao Domingos, Brazil
Current Conditions -  °F | °C
As of 8:00 PM on Tuesday 25 Nov 2014 (Local Time) from SBBR Reporting Station
Thunderstorm Thunderstorm  
Wind Chill: 68°   Ceiling: 400
Heat Index: 68°   Visibility: 4mi
Dew Point: 64°   Wind: 5mph
Humidity: 88%   Direction: 180°S
Pressure: NA   Gusts: NA
Location:  13.4°S, 46.32°W
Report Text: SBBR 252200Z 18004KT 6000 -TSRA BKN004 BKN020 FEW040CB 20/18 Q1016
Loading
Personal Weather Stations






























Interactive Weather Map New forecast layout! Learn more

10-Day Weather Forecast

Advertisements
Track Severe Weather on mobile